createdAt,value
2019-04-27T00:02:07.318Z,1.07
2019-04-27T00:04:57.613Z,1.20
2019-04-27T00:07:44.043Z,1.10
2019-04-27T00:10:25.242Z,0.90
2019-04-27T00:13:03.914Z,1.00
2019-04-27T00:15:32.588Z,1.00
2019-04-27T00:18:03.874Z,1.00
2019-04-27T00:20:37.554Z,1.00
2019-04-27T00:23:11.454Z,0.90
2019-04-27T00:25:43.953Z,1.00
2019-04-27T00:28:13.734Z,0.87
2019-04-27T00:30:43.843Z,0.90
2019-04-27T00:33:13.896Z,1.00
2019-04-27T00:35:44.595Z,1.00
2019-04-27T00:38:15.876Z,0.83
2019-04-27T00:40:55.715Z,0.80
2019-04-27T00:43:25.156Z,0.80
2019-04-27T00:45:54.875Z,1.00
2019-04-27T00:48:24.040Z,0.90
2019-04-27T00:50:53.417Z,1.00
2019-04-27T00:53:23.515Z,0.80
2019-04-27T00:55:57.896Z,0.73
2019-04-27T00:58:36.077Z,0.80
2019-04-27T01:01:10.063Z,0.87
2019-04-27T01:03:42.976Z,0.80
2019-04-27T01:06:13.105Z,0.87
2019-04-27T01:08:44.988Z,0.77
2019-04-27T01:11:14.962Z,0.80
2019-04-27T01:13:53.785Z,0.63
2019-04-27T01:16:24.233Z,0.60
2019-04-27T01:18:54.058Z,0.70
2019-04-27T01:21:23.700Z,0.73
2019-04-27T01:23:53.258Z,0.70
2019-04-27T01:26:42.977Z,0.77
2019-04-27T01:29:16.759Z,0.70
2019-04-27T01:31:46.521Z,0.60
2019-04-27T01:34:15.720Z,0.90
2019-04-27T01:36:45.279Z,0.70
2019-04-27T01:39:18.931Z,0.80
2019-04-27T01:41:49.132Z,0.70
2019-04-27T01:44:19.667Z,0.60
2019-04-27T01:46:49.500Z,0.70
2019-04-27T01:49:22.338Z,0.70
2019-04-27T01:51:51.959Z,0.60
2019-04-27T01:54:23.300Z,0.70
2019-04-27T01:56:52.760Z,0.70
2019-04-27T01:59:22.519Z,0.67
2019-04-27T02:01:53.664Z,0.50
2019-04-27T02:04:29.367Z,0.77
2019-04-27T02:07:00.184Z,0.70
2019-04-27T02:09:30.005Z,0.60
2019-04-27T02:11:59.700Z,0.70
2019-04-27T02:14:29.079Z,0.63
2019-04-27T02:17:12.719Z,0.77
2019-04-27T02:19:42.961Z,0.60
2019-04-27T02:22:21.141Z,0.80
2019-04-27T02:24:50.967Z,0.70
2019-04-27T02:27:22.100Z,0.80
2019-04-27T02:29:53.160Z,0.73
2019-04-27T02:32:40.242Z,0.60
2019-04-27T02:35:11.865Z,0.90
2019-04-27T02:37:41.880Z,0.70
2019-04-27T02:40:20.546Z,0.70
2019-04-27T02:42:54.499Z,0.80
2019-04-27T02:45:24.240Z,0.60
2019-04-27T02:47:53.581Z,0.67
2019-04-27T02:50:23.120Z,0.70
2019-04-27T02:52:53.981Z,0.80
2019-04-27T02:55:23.589Z,0.73
2019-04-27T02:57:52.945Z,0.80
2019-04-27T03:00:22.583Z,0.80
2019-04-27T03:02:53.544Z,0.60
2019-04-27T03:05:36.279Z,0.80
2019-04-27T03:08:05.861Z,0.73
2019-04-27T03:10:37.140Z,0.83
2019-04-27T03:13:11.225Z,0.80
2019-04-27T03:15:45.881Z,0.70
2019-04-27T03:18:32.860Z,0.70
2019-04-27T03:21:10.345Z,0.60
2019-04-27T03:23:41.215Z,0.80
2019-04-27T03:26:25.760Z,0.80
2019-04-27T03:28:55.321Z,0.83
2019-04-27T03:31:25.327Z,0.73
2019-04-27T03:33:59.125Z,0.70
2019-04-27T03:36:26.161Z,0.90
2019-04-27T03:39:10.161Z,0.80
2019-04-27T03:41:41.148Z,0.70
2019-04-27T03:44:10.863Z,0.70
2019-04-27T03:46:40.541Z,0.80
2019-04-27T03:49:27.254Z,0.70
2019-04-27T03:51:42.362Z,0.70
2019-04-27T03:54:15.960Z,0.80
2019-04-27T03:56:46.961Z,0.90
2019-04-27T03:59:19.557Z,0.80
2019-04-27T04:01:50.646Z,0.80
2019-04-27T04:04:21.184Z,0.90
2019-04-27T04:06:50.565Z,0.90
2019-04-27T04:09:21.570Z,0.70
2019-04-27T04:11:59.187Z,0.90
2019-04-27T04:14:30.231Z,0.80
2019-04-27T04:17:02.830Z,0.70
2019-04-27T04:19:47.913Z,0.90
2019-04-27T04:22:04.600Z,0.80
2019-04-27T04:24:33.879Z,1.00
2019-04-27T04:27:02.942Z,1.00
2019-04-27T04:29:32.359Z,1.00
2019-04-27T04:32:01.846Z,1.20
2019-04-27T04:34:31.539Z,0.97
2019-04-27T04:37:01.259Z,1.07
2019-04-27T04:39:31.200Z,1.07
2019-04-27T04:42:09.464Z,1.10
2019-04-27T04:44:50.404Z,0.80
2019-04-27T04:47:30.780Z,0.90
2019-04-27T04:50:11.476Z,0.70
2019-04-27T04:52:31.599Z,0.90
2019-04-27T04:55:02.745Z,0.80
2019-04-27T04:57:32.460Z,1.00
2019-04-27T05:00:02.001Z,0.97
2019-04-27T05:02:31.091Z,1.00
2019-04-27T05:05:00.470Z,0.97
2019-04-27T05:07:30.030Z,0.97
2019-04-27T05:09:59.081Z,1.10
2019-04-27T05:12:30.640Z,0.97
2019-04-27T05:15:00.380Z,1.20
2019-04-27T05:17:30.461Z,1.10
2019-04-27T05:20:01.259Z,1.10
2019-04-27T05:22:31.960Z,1.00
2019-04-27T05:25:01.420Z,1.20
2019-04-27T05:27:31.341Z,0.80
2019-04-27T05:30:02.029Z,0.80
2019-04-27T05:32:31.320Z,0.80
2019-04-27T05:35:00.662Z,0.70
2019-04-27T05:37:31.639Z,0.70
2019-04-27T05:40:00.801Z,0.80
2019-04-27T05:42:30.918Z,0.70
2019-04-27T05:45:21.463Z,0.70
2019-04-27T05:47:53.640Z,0.70
2019-04-27T05:50:35.579Z,0.80
2019-04-27T05:52:55.717Z,0.70
2019-04-27T05:55:25.099Z,0.90
2019-04-27T05:57:54.559Z,0.67
2019-04-27T06:00:23.746Z,0.70
2019-04-27T06:02:52.919Z,0.67
2019-04-27T06:05:23.234Z,0.83
2019-04-27T06:07:52.458Z,0.60
2019-04-27T06:10:21.645Z,0.70
2019-04-27T06:12:51.425Z,0.67
2019-04-27T06:15:20.614Z,0.70
2019-04-27T06:17:51.942Z,0.77
2019-04-27T06:20:21.306Z,0.80
2019-04-27T06:22:58.720Z,0.80
2019-04-27T06:25:30.460Z,0.70
2019-04-27T06:27:59.284Z,0.70
2019-04-27T06:30:29.219Z,0.60
2019-04-27T06:32:59.429Z,0.70
2019-04-27T06:35:30.245Z,0.73
2019-04-27T06:37:59.784Z,0.73
2019-04-27T06:40:29.527Z,0.70
2019-04-27T06:42:59.598Z,0.70
2019-04-27T06:45:29.554Z,1.10
2019-04-27T06:47:59.594Z,0.73
2019-04-27T06:50:29.555Z,0.80
2019-04-27T06:52:59.195Z,0.67
2019-04-27T06:55:29.120Z,0.80
2019-04-27T06:57:58.963Z,0.70
2019-04-27T07:00:28.869Z,0.70
2019-04-27T07:02:59.677Z,0.90
2019-04-27T07:05:29.245Z,0.80
2019-04-27T07:07:59.120Z,0.70
2019-04-27T07:10:29.119Z,0.70
2019-04-27T07:12:59.725Z,0.50
2019-04-27T07:15:35.378Z,0.80
2019-04-27T07:18:04.743Z,0.63
2019-04-27T07:20:34.166Z,0.70
2019-04-27T07:23:03.964Z,0.70
2019-04-27T07:25:33.903Z,0.60
2019-04-27T07:28:03.502Z,0.60
2019-04-27T07:30:32.598Z,0.60
2019-04-27T07:33:02.003Z,0.70
2019-04-27T07:35:32.839Z,0.60
2019-04-27T07:38:02.205Z,0.60
2019-04-27T07:40:31.890Z,0.80
2019-04-27T07:43:06.349Z,0.80
2019-04-27T07:45:37.218Z,0.70
2019-04-27T07:48:06.701Z,0.87
2019-04-27T07:50:35.858Z,0.73
2019-04-27T07:53:05.359Z,0.63
2019-04-27T07:55:34.999Z,0.80
2019-04-27T07:58:05.246Z,0.60
2019-04-27T08:00:34.613Z,0.70
2019-04-27T08:03:03.835Z,0.60
2019-04-27T08:05:33.272Z,0.73
2019-04-27T08:08:02.361Z,0.70
2019-04-27T08:10:31.458Z,0.73
2019-04-27T08:13:00.859Z,0.60
2019-04-27T08:15:30.079Z,0.80
2019-04-27T08:18:00.100Z,0.70
2019-04-27T08:20:29.535Z,0.77
2019-04-27T08:23:01.205Z,0.60
2019-04-27T08:25:30.787Z,0.70
2019-04-27T08:28:10.870Z,0.50
2019-04-27T08:30:52.363Z,0.60
2019-04-27T08:33:21.560Z,0.70
2019-04-27T08:35:51.305Z,0.60
2019-04-27T08:38:20.734Z,0.53
2019-04-27T08:40:50.199Z,0.70
2019-04-27T08:43:19.423Z,0.70
2019-04-27T08:45:48.981Z,0.70
2019-04-27T08:48:33.365Z,0.80
2019-04-27T08:50:51.540Z,0.70
2019-04-27T08:53:20.590Z,0.77
2019-04-27T08:55:55.108Z,0.67
2019-04-27T08:58:24.302Z,0.70
2019-04-27T09:00:53.723Z,0.63
2019-04-27T09:03:23.564Z,0.50
2019-04-27T09:05:53.844Z,0.60
2019-04-27T09:08:31.265Z,0.70
2019-04-27T09:11:05.278Z,0.70
2019-04-27T09:13:41.281Z,0.67
2019-04-27T09:16:28.846Z,0.60
2019-04-27T09:19:02.227Z,0.60
2019-04-27T09:21:51.759Z,0.70
2019-04-27T09:24:22.298Z,0.67
2019-04-27T09:26:54.278Z,0.60
2019-04-27T09:29:23.594Z,0.70
2019-04-27T09:31:52.886Z,0.70
2019-04-27T09:34:23.525Z,0.70
2019-04-27T09:36:53.710Z,0.70
2019-04-27T09:39:23.522Z,0.70
2019-04-27T09:41:54.583Z,0.60
2019-04-27T09:44:27.322Z,0.70
2019-04-27T09:46:56.980Z,0.60
2019-04-27T09:49:27.518Z,0.67
2019-04-27T09:52:01.988Z,0.50
2019-04-27T09:54:32.782Z,0.83
2019-04-27T09:57:02.422Z,0.70
2019-04-27T09:59:33.182Z,0.67
2019-04-27T10:02:03.307Z,0.70
2019-04-27T10:04:32.622Z,0.80
2019-04-27T10:07:02.402Z,0.80
2019-04-27T10:09:32.442Z,0.60
2019-04-27T10:12:05.301Z,0.60
2019-04-27T10:14:39.560Z,0.80
2019-04-27T10:17:12.565Z,0.70
2019-04-27T10:19:46.038Z,0.63
2019-04-27T10:22:15.944Z,0.57
2019-04-27T10:24:50.225Z,0.60
2019-04-27T10:27:20.970Z,0.67
2019-04-27T10:29:51.950Z,0.80
2019-04-27T10:32:23.342Z,0.63
2019-04-27T10:34:58.182Z,0.70
2019-04-27T10:37:32.921Z,0.70
2019-04-27T10:40:03.740Z,0.50
2019-04-27T10:42:35.709Z,0.67
2019-04-27T10:45:08.480Z,0.50
2019-04-27T10:47:38.757Z,0.70
2019-04-27T10:50:08.518Z,0.73
2019-04-27T10:52:38.839Z,0.50
2019-04-27T10:55:08.563Z,0.60
2019-04-27T10:57:44.684Z,0.60
2019-04-27T11:00:17.872Z,0.70
2019-04-27T11:02:47.681Z,0.53
2019-04-27T11:05:23.105Z,0.53
2019-04-27T11:07:56.375Z,0.50
2019-04-27T11:10:26.184Z,0.50
2019-04-27T11:12:56.342Z,0.70
2019-04-27T11:15:28.821Z,0.60
2019-04-27T11:17:58.070Z,0.60
2019-04-27T11:20:28.259Z,0.60
2019-04-27T11:23:06.992Z,0.70
2019-04-27T11:25:31.703Z,0.80
2019-04-27T11:28:01.282Z,0.53
2019-04-27T11:30:31.192Z,0.67
2019-04-27T11:33:00.760Z,0.53
2019-04-27T11:35:35.658Z,0.50
2019-04-27T11:38:05.646Z,0.70
2019-04-27T11:40:36.449Z,0.53
2019-04-27T11:43:06.659Z,0.70
2019-04-27T11:45:36.981Z,0.70
2019-04-27T11:48:06.911Z,0.60
2019-04-27T11:50:36.353Z,0.67
2019-04-27T11:53:06.268Z,0.80
2019-04-27T11:55:36.539Z,0.40
2019-04-27T11:58:06.720Z,0.53
2019-04-27T12:00:37.087Z,0.60
2019-04-27T12:03:07.155Z,0.70
2019-04-27T12:05:38.302Z,0.60
2019-04-27T12:08:08.045Z,0.80
2019-04-27T12:10:37.723Z,0.87
2019-04-27T12:13:07.765Z,0.80
2019-04-27T12:15:37.904Z,0.60
2019-04-27T12:18:09.095Z,0.63
2019-04-27T12:20:39.639Z,0.70
2019-04-27T12:23:09.439Z,0.50
2019-04-27T12:25:40.641Z,0.70
2019-04-27T12:28:23.110Z,0.60
2019-04-27T12:30:55.471Z,0.80
2019-04-27T12:33:25.617Z,0.80
2019-04-27T12:35:57.659Z,0.80
2019-04-27T12:38:28.327Z,0.70
2019-04-27T12:40:59.791Z,0.70
2019-04-27T12:43:35.580Z,0.70
2019-04-27T12:46:09.123Z,0.60
2019-04-27T12:48:42.621Z,0.70
2019-04-27T12:51:16.670Z,1.37
2019-04-27T12:53:53.105Z,0.60
2019-04-27T12:56:26.032Z,0.80
2019-04-27T12:59:08.868Z,0.40
2019-04-27T13:01:40.507Z,0.60
2019-04-27T13:04:11.741Z,0.60
2019-04-27T13:06:46.976Z,0.80
2019-04-27T13:09:17.715Z,0.77
2019-04-27T13:11:50.189Z,0.70
2019-04-27T13:14:20.822Z,0.70
2019-04-27T13:16:52.542Z,0.70
2019-04-27T13:19:25.932Z,0.80
2019-04-27T13:21:56.618Z,0.60
2019-04-27T13:24:28.176Z,0.60
2019-04-27T13:27:00.159Z,0.70
2019-04-27T13:29:30.539Z,0.77
2019-04-27T13:32:01.561Z,0.70
2019-04-27T13:34:31.578Z,0.70
2019-04-27T13:37:03.180Z,0.83
2019-04-27T13:39:33.599Z,0.80
2019-04-27T13:42:06.621Z,0.70
2019-04-27T13:44:37.100Z,0.90
2019-04-27T13:47:17.061Z,0.70
2019-04-27T13:49:48.880Z,0.70
2019-04-27T13:52:20.341Z,0.90
2019-04-27T13:54:52.459Z,0.70
2019-04-27T13:57:26.487Z,0.70
2019-04-27T13:59:56.621Z,0.83
2019-04-27T14:02:32.231Z,0.70
2019-04-27T14:04:59.820Z,0.73
2019-04-27T14:07:30.108Z,0.60
2019-04-27T14:10:00.104Z,0.80
2019-04-27T14:12:31.041Z,0.60
2019-04-27T14:15:02.225Z,0.70
2019-04-27T14:17:32.787Z,0.63
2019-04-27T14:20:04.001Z,0.80
2019-04-27T14:22:37.460Z,0.80
2019-04-27T14:25:08.716Z,1.83
2019-04-27T14:27:44.019Z,2.90
2019-04-27T14:30:20.838Z,2.57
2019-04-27T14:32:52.799Z,1.20
2019-04-27T14:35:23.786Z,1.07
2019-04-27T14:37:58.071Z,0.80
2019-04-27T14:40:28.877Z,0.90
2019-04-27T14:42:59.518Z,1.40
2019-04-27T14:45:30.900Z,1.70
2019-04-27T14:48:04.642Z,2.07
2019-04-27T14:50:40.475Z,1.43
2019-04-27T14:53:12.027Z,1.03
2019-04-27T14:55:48.763Z,0.90
2019-04-27T14:58:19.145Z,1.10
2019-04-27T15:00:53.362Z,0.90
2019-04-27T15:03:24.123Z,0.93
2019-04-27T15:05:55.134Z,1.00
2019-04-27T15:08:28.921Z,1.03
2019-04-27T15:10:59.242Z,0.93
2019-04-27T15:13:29.861Z,0.90
2019-04-27T15:16:02.720Z,0.90
2019-04-27T15:18:39.068Z,0.90
2019-04-27T15:21:06.587Z,0.90
2019-04-27T15:23:41.330Z,0.90
2019-04-27T15:26:15.510Z,1.07
2019-04-27T15:28:49.526Z,0.93
2019-04-27T15:31:39.032Z,1.00
2019-04-27T15:34:12.639Z,1.00
2019-04-27T15:36:47.458Z,0.70
2019-04-27T15:39:36.063Z,0.93
2019-04-27T15:42:19.462Z,0.87
2019-04-27T15:44:52.099Z,0.80
2019-04-27T15:47:22.785Z,1.20
2019-04-27T15:49:54.527Z,0.90
2019-04-27T15:52:25.595Z,0.87
2019-04-27T15:54:55.466Z,0.90
2019-04-27T15:57:24.925Z,0.87
2019-04-27T15:59:55.002Z,0.63
2019-04-27T16:02:25.226Z,0.70
2019-04-27T16:04:54.886Z,0.90
2019-04-27T16:07:27.901Z,0.80
2019-04-27T16:09:59.176Z,0.80
2019-04-27T16:12:28.433Z,0.90
2019-04-27T16:14:59.039Z,0.70
2019-04-27T16:17:31.902Z,0.80
2019-04-27T16:19:59.561Z,0.80
2019-04-27T16:22:30.268Z,1.00
2019-04-27T16:24:59.865Z,0.80
2019-04-27T16:27:31.518Z,0.90
2019-04-27T16:30:10.015Z,0.80
2019-04-27T16:32:36.180Z,1.00
2019-04-27T16:35:08.298Z,1.13
2019-04-27T16:37:58.071Z,1.00
2019-04-27T16:40:29.996Z,0.90
2019-04-27T16:42:58.960Z,1.10
2019-04-27T16:45:34.500Z,1.83
2019-04-27T16:48:04.499Z,1.00
2019-04-27T16:50:34.248Z,1.10
2019-04-27T16:53:04.460Z,1.17
2019-04-27T16:55:35.350Z,1.10
2019-04-27T16:58:09.716Z,1.13
2019-04-27T17:00:38.756Z,1.00
2019-04-27T17:03:10.046Z,1.00
2019-04-27T17:05:39.459Z,1.10
2019-04-27T17:08:14.391Z,1.13
2019-04-27T17:10:41.199Z,2.00
2019-04-27T17:13:14.386Z,1.70
2019-04-27T17:15:53.848Z,1.50
2019-04-27T17:18:31.238Z,1.13
2019-04-27T17:21:09.980Z,1.10
2019-04-27T17:23:31.774Z,1.10
2019-04-27T17:26:13.948Z,1.10
2019-04-27T17:28:37.693Z,1.30
2019-04-27T17:31:05.991Z,1.40
2019-04-27T17:33:38.130Z,1.40
2019-04-27T17:36:12.173Z,1.13
2019-04-27T17:38:42.600Z,1.00
2019-04-27T17:41:13.883Z,1.13
2019-04-27T17:43:43.450Z,1.40
2019-04-27T17:46:13.287Z,1.20
2019-04-27T17:48:42.844Z,1.30
2019-04-27T17:51:15.219Z,1.20
2019-04-27T17:53:51.344Z,1.33
2019-04-27T17:56:33.369Z,1.20
2019-04-27T17:58:54.723Z,1.50
2019-04-27T18:01:30.141Z,1.30
2019-04-27T18:04:02.963Z,1.30
2019-04-27T18:06:30.919Z,1.20
2019-04-27T18:09:03.304Z,1.60
2019-04-27T18:11:32.912Z,1.70
2019-04-27T18:14:09.844Z,1.60
2019-04-27T18:16:40.083Z,1.53
2019-04-27T18:19:13.082Z,4.17
2019-04-27T18:21:48.613Z,3.63
2019-04-27T18:24:25.106Z,4.40
2019-04-27T18:27:04.341Z,3.60
2019-04-27T18:29:38.715Z,2.77
2019-04-27T18:32:09.780Z,2.20
2019-04-27T18:34:40.870Z,1.97
2019-04-27T18:37:14.358Z,1.40
2019-04-27T18:39:45.330Z,1.60
2019-04-27T18:42:18.174Z,1.70
2019-04-27T18:44:50.642Z,1.63
2019-04-27T18:47:22.131Z,6.13
2019-04-27T18:50:07.427Z,3.23
2019-04-27T18:52:50.208Z,2.97
2019-04-27T18:55:21.414Z,2.60
2019-04-27T18:57:54.440Z,2.30
2019-04-27T19:00:25.002Z,2.40
2019-04-27T19:02:58.358Z,2.60
2019-04-27T19:05:39.949Z,2.30
2019-04-27T19:08:03.449Z,2.30
2019-04-27T19:10:38.375Z,2.10
2019-04-27T19:13:10.715Z,2.33
2019-04-27T19:15:43.204Z,2.77
2019-04-27T19:18:14.244Z,2.47
2019-04-27T19:20:45.224Z,2.60
2019-04-27T19:23:16.547Z,3.30
2019-04-27T19:26:08.639Z,2.40
2019-04-27T19:28:55.185Z,2.37
2019-04-27T19:31:31.409Z,2.40
2019-04-27T19:34:07.066Z,2.37
2019-04-27T19:36:41.800Z,2.33
2019-04-27T19:39:18.132Z,2.20
2019-04-27T19:42:00.266Z,2.23
2019-04-27T19:44:24.750Z,2.07
2019-04-27T19:46:55.685Z,1.97
2019-04-27T19:49:26.600Z,2.40
2019-04-27T19:51:58.993Z,7.30
2019-04-27T19:54:31.262Z,2.67
2019-04-27T19:57:04.545Z,2.57
2019-04-27T19:59:41.476Z,2.50
2019-04-27T20:02:15.546Z,2.43
2019-04-27T20:04:50.509Z,2.63
2019-04-27T20:07:22.494Z,2.40
2019-04-27T20:09:55.207Z,2.60
2019-04-27T20:12:27.769Z,2.73
2019-04-27T20:14:58.965Z,2.90
2019-04-27T20:17:33.783Z,2.70
2019-04-27T20:20:07.574Z,2.80
2019-04-27T20:22:38.614Z,2.50
2019-04-27T20:25:11.291Z,2.60
2019-04-27T20:27:48.819Z,2.40
2019-04-27T20:30:16.513Z,2.70
2019-04-27T20:32:53.223Z,2.43
2019-04-27T20:35:25.515Z,2.60
2019-04-27T20:37:57.740Z,3.10
2019-04-27T20:40:31.609Z,2.63
2019-04-27T20:43:03.204Z,2.70
2019-04-27T20:45:35.719Z,2.60
2019-04-27T20:48:08.507Z,2.47
2019-04-27T20:50:41.228Z,2.77
2019-04-27T20:53:15.090Z,2.67
2019-04-27T20:55:52.163Z,3.13
2019-04-27T20:58:28.401Z,3.20
2019-04-27T21:01:01.667Z,2.97
2019-04-27T21:03:35.643Z,2.60
2019-04-27T21:06:30.414Z,2.50
2019-04-27T21:09:04.525Z,3.10
2019-04-27T21:11:48.529Z,2.50
2019-04-27T21:14:21.570Z,2.70
2019-04-27T21:16:52.610Z,2.63
2019-04-27T21:19:23.490Z,2.40
2019-04-27T21:21:54.307Z,2.50
2019-04-27T21:24:26.568Z,2.47
2019-04-27T21:26:57.180Z,2.20
2019-04-27T21:29:27.850Z,3.23
2019-04-27T21:32:00.919Z,2.73
2019-04-27T21:34:32.401Z,2.77
2019-04-27T21:37:07.854Z,2.30
2019-04-27T21:39:40.648Z,2.30
2019-04-27T21:42:13.477Z,2.23
2019-04-27T21:44:45.183Z,2.27
2019-04-27T21:47:16.271Z,2.57
2019-04-27T21:49:47.205Z,2.70
2019-04-27T21:52:22.884Z,2.47
2019-04-27T21:54:54.747Z,2.23
2019-04-27T21:57:24.803Z,2.63
2019-04-27T21:59:54.600Z,2.70
2019-04-27T22:02:24.448Z,2.17
2019-04-27T22:04:53.628Z,2.00
2019-04-27T22:07:24.147Z,2.03
2019-04-27T22:09:53.867Z,2.07
2019-04-27T22:12:23.424Z,1.90
2019-04-27T22:14:53.168Z,2.00
2019-04-27T22:17:23.160Z,2.40
2019-04-27T22:19:54.059Z,2.47
2019-04-27T22:22:31.446Z,2.10
2019-04-27T22:25:08.399Z,2.67
2019-04-27T22:27:39.219Z,2.50
2019-04-27T22:30:11.019Z,2.20
2019-04-27T22:32:41.411Z,2.40
2019-04-27T22:35:11.627Z,2.30
2019-04-27T22:37:41.373Z,2.40
2019-04-27T22:40:16.887Z,1.97
2019-04-27T22:43:04.103Z,2.50
2019-04-27T22:45:35.030Z,2.37
2019-04-27T22:48:04.519Z,2.20
2019-04-27T22:50:33.559Z,2.30
2019-04-27T22:53:08.342Z,2.23
2019-04-27T22:55:38.559Z,2.63
2019-04-27T22:58:22.379Z,2.77
2019-04-27T23:00:58.621Z,2.40
2019-04-27T23:03:32.082Z,2.03
2019-04-27T23:06:06.938Z,2.23
2019-04-27T23:08:37.122Z,2.40
2019-04-27T23:11:07.120Z,2.53
2019-04-27T23:13:43.258Z,2.37
2019-04-27T23:16:14.399Z,2.00
2019-04-27T23:18:51.739Z,2.23
2019-04-27T23:21:21.599Z,2.30
2019-04-27T23:23:54.299Z,2.10
2019-04-27T23:26:23.679Z,2.20
2019-04-27T23:28:53.099Z,2.30
2019-04-27T23:31:31.773Z,2.17
2019-04-27T23:34:01.875Z,2.00
2019-04-27T23:36:32.181Z,1.90
2019-04-27T23:39:01.479Z,2.23
2019-04-27T23:41:33.738Z,2.37
2019-04-27T23:44:03.400Z,2.30
2019-04-27T23:46:32.938Z,2.23
2019-04-27T23:49:02.928Z,2.10
2019-04-27T23:51:34.459Z,1.70
2019-04-27T23:54:04.419Z,1.80
2019-04-27T23:56:35.639Z,2.23
2019-04-27T23:59:05.627Z,1.70
